sensor_id;sensor_type;location;lat;lon;timestamp;pressure;altitude;pressure_sealevel;temperature;humidity
57799;BME280;43626;53.866;30.298;2024-01-06T00:02:28;1017;;;-5.8;63.1
57799;BME280;43626;53.866;30.298;2024-01-06T00:06:42;1017;;;-5.9;63.2
57799;BME280;43626;53.866;30.298;2024-01-06T00:12:06;1017.1;;;-5.9;63.3
57799;BME280;43626;53.866;30.298;2024-01-06T00:17:28;1017.1;;;-5.9;63.6
57799;BME280;43626;53.866;30.298;2024-01-06T00:22:06;1017.1;;;-5.9;64
57799;BME280;43626;53.866;30.298;2024-01-06T00:27:00;1017.1;;;-5.8;63.9
57799;BME280;43626;53.866;30.298;2024-01-06T00:32:06;1017.2;;;-5.8;63.6
57799;BME280;43626;53.866;30.298;2024-01-06T00:36:36;1017.2;;;-5.8;63.5
57799;BME280;43626;53.866;30.298;2024-01-06T00:41:44;1017.2;;;-5.9;63.6
57799;BME280;43626;53.866;30.298;2024-01-06T00:46:56;1017.2;;;-5.9;63.8
57799;BME280;43626;53.866;30.298;2024-01-06T00:52:06;1017.3;;;-5.8;63.9
57799;BME280;43626;53.866;30.298;2024-01-06T00:57:18;1017.2;;;-5.8;64
57799;BME280;43626;53.866;30.298;2024-01-06T01:02:08;1017.2;;;-5.8;64
57799;BME280;43626;53.866;30.298;2024-01-06T01:07:30;1017.2;;;-5.8;63.8
57799;BME280;43626;53.866;30.298;2024-01-06T01:12:06;1017.2;;;-5.8;63.7
57799;BME280;43626;53.866;30.298;2024-01-06T01:16:38;1017.3;;;-5.7;63.7
57799;BME280;43626;53.866;30.298;2024-01-06T01:22:08;1017.3;;;-5.7;63.7
57799;BME280;43626;53.866;30.298;2024-01-06T01:26:38;1017.4;;;-5.6;63.7
57799;BME280;43626;53.866;30.298;2024-01-06T01:31:38;1017.4;;;-5.6;63.5
57799;BME280;43626;53.866;30.298;2024-01-06T01:37:00;1017.5;;;-5.6;63.4
57799;BME280;43626;53.866;30.298;2024-01-06T01:42:20;1017.5;;;-5.6;63.3
57799;BME280;43626;53.866;30.298;2024-01-06T01:46:46;1017.5;;;-5.6;63.2
57799;BME280;43626;53.866;30.298;2024-01-06T01:51:46;1017.6;;;-5.7;63
57799;BME280;43626;53.866;30.298;2024-01-06T01:57:28;1017.6;;;-5.7;62.8
57799;BME280;43626;53.866;30.298;2024-01-06T02:01:52;1017.6;;;-5.7;62.7
57799;BME280;43626;53.866;30.298;2024-01-06T02:06:38;1017.7;;;-5.8;62.5
57799;BME280;43626;53.866;30.298;2024-01-06T02:12:06;1017.7;;;-5.8;62.7
57799;BME280;43626;53.866;30.298;2024-01-06T02:17:18;1017.7;;;-5.8;62.6
57799;BME280;43626;53.866;30.298;2024-01-06T02:21:52;1017.6;;;-5.9;62.5
57799;BME280;43626;53.866;30.298;2024-01-06T02:27:06;1017.6;;;-5.9;62.4
57799;BME280;43626;53.866;30.298;2024-01-06T02:32:28;1017.7;;;-5.9;62.4
57799;BME280;43626;53.866;30.298;2024-01-06T02:37:20;1017.7;;;-6;62.1
57799;BME280;43626;53.866;30.298;2024-01-06T02:41:58;1017.7;;;-6;61.9
57799;BME280;43626;53.866;30.298;2024-01-06T02:46:38;1017.7;;;-6.1;61.7
57799;BME280;43626;53.866;30.298;2024-01-06T02:52:30;1017.7;;;-6.1;61.7
57799;BME280;43626;53.866;30.298;2024-01-06T02:56:38;1017.8;;;-6.1;61.4
57799;BME280;43626;53.866;30.298;2024-01-06T03:01:38;1017.8;;;-6.1;60.9
57799;BME280;43626;53.866;30.298;2024-01-06T03:07:14;1017.9;;;-6.2;60.9
57799;BME280;43626;53.866;30.298;2024-01-06T03:12:14;1017.9;;;-6.1;60.8
57799;BME280;43626;53.866;30.298;2024-01-06T03:17:28;1018;;;-6.2;60.8
57799;BME280;43626;53.866;30.298;2024-01-06T03:22:20;1018;;;-6.2;60.6
57799;BME280;43626;53.866;30.298;2024-01-06T03:27:28;1018.1;;;-6.2;60.5
57799;BME280;43626;53.866;30.298;2024-01-06T03:32:08;1018.1;;;-6.2;60.4
57799;BME280;43626;53.866;30.298;2024-01-06T03:37:28;1018.2;;;-6.3;59.8
57799;BME280;43626;53.866;30.298;2024-01-06T03:42:16;1018.3;;;-6.3;59.5
57799;BME280;43626;53.866;30.298;2024-01-06T03:46:40;1018.3;;;-6.4;59.3
57799;BME280;43626;53.866;30.298;2024-01-06T03:52:28;1018.3;;;-6.4;59
57799;BME280;43626;53.866;30.298;2024-01-06T03:57:14;1018.3;;;-6.4;59.2
57799;BME280;43626;53.866;30.298;2024-01-06T04:02:04;1018.3;;;-6.4;59
57799;BME280;43626;53.866;30.298;2024-01-06T04:06:38;1018.4;;;-6.4;59
57799;BME280;43626;53.866;30.298;2024-01-06T04:12:06;1018.4;;;-6.5;59
57799;BME280;43626;53.866;30.298;2024-01-06T04:17:30;1018.4;;;-6.5;58.9
57799;BME280;43626;53.866;30.298;2024-01-06T04:22:28;1018.5;;;-6.5;58.8
57799;BME280;43626;53.866;30.298;2024-01-06T04:27:30;1018.5;;;-6.5;58.7
57799;BME280;43626;53.866;30.298;2024-01-06T04:32:16;1018.6;;;-6.6;58.2
57799;BME280;43626;53.866;30.298;2024-01-06T04:36:46;1018.6;;;-6.7;57.8
57799;BME280;43626;53.866;30.298;2024-01-06T04:42:30;1018.7;;;-6.7;57.6
57799;BME280;43626;53.866;30.298;2024-01-06T04:47:08;1018.7;;;-6.8;57.5
57799;BME280;43626;53.866;30.298;2024-01-06T04:52:08;1018.8;;;-6.7;57.5
57799;BME280;43626;53.866;30.298;2024-01-06T04:56:48;1018.8;;;-6.7;57.4
57799;BME280;43626;53.866;30.298;2024-01-06T05:02:30;1018.9;;;-6.7;57.6
57799;BME280;43626;53.866;30.298;2024-01-06T05:07:18;1019;;;-6.8;57.6
57799;BME280;43626;53.866;30.298;2024-01-06T05:11:38;1019;;;-6.8;57.5
57799;BME280;43626;53.866;30.298;2024-01-06T05:16:52;1019.1;;;-6.8;57.5
57799;BME280;43626;53.866;30.298;2024-01-06T05:21:40;1019.1;;;-6.9;57.3
57799;BME280;43626;53.866;30.298;2024-01-06T05:26:52;1019.1;;;-7;57
57799;BME280;43626;53.866;30.298;2024-01-06T05:32:16;1019.3;;;-7;56.7
57799;BME280;43626;53.866;30.298;2024-01-06T05:37:04;1019.4;;;-7;56.6
57799;BME280;43626;53.866;30.298;2024-01-06T05:42:12;1019.4;;;-7;56.4
57799;BME280;43626;53.866;30.298;2024-01-06T05:46:36;1019.6;;;-7;56.2
57799;BME280;43626;53.866;30.298;2024-01-06T05:51:54;1019.6;;;-7;56.3
57799;BME280;43626;53.866;30.298;2024-01-06T05:56:38;1019.6;;;-7;56.5
57799;BME280;43626;53.866;30.298;2024-01-06T06:02:08;1019.6;;;-7.1;56.6
57799;BME280;43626;53.866;30.298;2024-01-06T06:07:30;1019.6;;;-7.1;56.7
57799;BME280;43626;53.866;30.298;2024-01-06T06:11:46;1019.6;;;-7.1;56.8
57799;BME280;43626;53.866;30.298;2024-01-06T06:16:46;1019.6;;;-7;56.7
57799;BME280;43626;53.866;30.298;2024-01-06T06:22:28;1019.7;;;-6.9;56.4
57799;BME280;43626;53.866;30.298;2024-01-06T06:26:52;1019.7;;;-6.9;55.7
57799;BME280;43626;53.866;30.298;2024-01-06T06:31:36;1019.8;;;-6.9;55.3
57799;BME280;43626;53.866;30.298;2024-01-06T06:36:38;1019.8;;;-6.9;55
57799;BME280;43626;53.866;30.298;2024-01-06T06:42:16;1019.8;;;-6.9;54.9
57799;BME280;43626;53.866;30.298;2024-01-06T06:46:42;1019.9;;;-6.9;55.3
57799;BME280;43626;53.866;30.298;2024-01-06T06:51:58;1019.9;;;-6.8;55.5
57799;BME280;43626;53.866;30.298;2024-01-06T06:57:28;1019.9;;;-6.8;55.5
57799;BME280;43626;53.866;30.298;2024-01-06T07:02:26;1019.9;;;-6.7;55.6
57799;BME280;43626;53.866;30.298;2024-01-06T07:06:44;1019.9;;;-6.7;55.6
57799;BME280;43626;53.866;30.298;2024-01-06T07:11:56;1020;;;-6.6;55.5
57799;BME280;43626;53.866;30.298;2024-01-06T07:17:28;1020;;;-6.6;55.2
57799;BME280;43626;53.866;30.298;2024-01-06T07:21:44;1020;;;-6.6;55.1
57799;BME280;43626;53.866;30.298;2024-01-06T07:26:36;1020.1;;;-6.6;55.2
57799;BME280;43626;53.866;30.298;2024-01-06T07:32:28;1020.1;;;-6.5;55.5
57799;BME280;43626;53.866;30.298;2024-01-06T07:37:18;1020.2;;;-6.3;56
57799;BME280;43626;53.866;30.298;2024-01-06T07:42:26;1020.3;;;-6.2;55.9
57799;BME280;43626;53.866;30.298;2024-01-06T07:46:38;1020.4;;;-6.2;56
57799;BME280;43626;53.866;30.298;2024-01-06T07:51:44;1020.4;;;-6.2;56.1
57799;BME280;43626;53.866;30.298;2024-01-06T07:56:42;1020.5;;;-6.1;56.1
57799;BME280;43626;53.866;30.298;2024-01-06T08:02:28;1020.6;;;-6;56.1
57799;BME280;43626;53.866;30.298;2024-01-06T08:07:12;1020.6;;;-6;56
57799;BME280;43626;53.866;30.298;2024-01-06T08:12:06;1020.6;;;-6;56.1
57799;BME280;43626;53.866;30.298;2024-01-06T08:17:26;1020.7;;;-5.9;55.7
57799;BME280;43626;53.866;30.298;2024-01-06T08:22:28;1020.7;;;-5.8;55.3
57799;BME280;43626;53.866;30.298;2024-01-06T08:27:06;1020.8;;;-5.7;55.1
57799;BME280;43626;53.866;30.298;2024-01-06T08:31:48;1020.8;;;-5.6;55
57799;BME280;43626;53.866;30.298;2024-01-06T08:37:28;1020.8;;;-5.4;55
57799;BME280;43626;53.866;30.298;2024-01-06T08:42:28;1020.7;;;-5.3;54.7
57799;BME280;43626;53.866;30.298;2024-01-06T08:47:26;1020.7;;;-5.2;54.4
57799;BME280;43626;53.866;30.298;2024-01-06T08:52:28;1020.8;;;-5.1;54.3
57799;BME280;43626;53.866;30.298;2024-01-06T08:57:06;1020.8;;;-5;54.2
57799;BME280;43626;53.866;30.298;2024-01-06T09:01:36;1020.8;;;-5;53.9
57799;BME280;43626;53.866;30.298;2024-01-06T09:07:14;1020.9;;;-5;53.3
57799;BME280;43626;53.866;30.298;2024-01-06T09:12:26;1020.9;;;-5;53.2
57799;BME280;43626;53.866;30.298;2024-01-06T09:17:04;1020.9;;;-4.9;52.5
57799;BME280;43626;53.866;30.298;2024-01-06T09:21:56;1020.9;;;-4.9;52.4
57799;BME280;43626;53.866;30.298;2024-01-06T09:26:58;1020.9;;;-4.8;52.5
57799;BME280;43626;53.866;30.298;2024-01-06T09:32:10;1020.9;;;-4.8;52.5
57799;BME280;43626;53.866;30.298;2024-01-06T09:37:04;1020.9;;;-4.7;52.8
57799;BME280;43626;53.866;30.298;2024-01-06T09:41:52;1020.9;;;-4.7;52.6
57799;BME280;43626;53.866;30.298;2024-01-06T09:47:22;1020.9;;;-4.7;52.8
57799;BME280;43626;53.866;30.298;2024-01-06T09:52:07;1020.9;;;-4.7;52.7
57799;BME280;43626;53.866;30.298;2024-01-06T09:56:44;1021;;;-4.7;52.5
57799;BME280;43626;53.866;30.298;2024-01-06T10:02:04;1021;;;-4.7;52.4
57799;BME280;43626;53.866;30.298;2024-01-06T10:06:36;1021;;;-4.6;52
57799;BME280;43626;53.866;30.298;2024-01-06T10:12:08;1021;;;-4.6;52.1
57799;BME280;43626;53.866;30.298;2024-01-06T10:16:44;1021.1;;;-4.6;52.2
57799;BME280;43626;53.866;30.298;2024-01-06T10:21:58;1021.1;;;-4.6;52.1
57799;BME280;43626;53.866;30.298;2024-01-06T10:27:06;1021;;;-4.5;52.3
57799;BME280;43626;53.866;30.298;2024-01-06T10:32:30;1021;;;-4.5;52.4
57799;BME280;43626;53.866;30.298;2024-01-06T10:36:44;1020.9;;;-4.3;52.4
57799;BME280;43626;53.866;30.298;2024-01-06T10:41:36;1021;;;-4.3;52.1
57799;BME280;43626;53.866;30.298;2024-01-06T10:47:29;1021;;;-4.3;51.9
57799;BME280;43626;53.866;30.298;2024-01-06T10:52:04;1021.1;;;-4.5;51.6
57799;BME280;43626;53.866;30.298;2024-01-06T10:56:54;1021.1;;;-4.8;51.4
57799;BME280;43626;53.866;30.298;2024-01-06T11:02:04;1021.1;;;-5;51.4
57799;BME280;43626;53.866;30.298;2024-01-06T11:07:10;1021.1;;;-5.1;51.8
57799;BME280;43626;53.866;30.298;2024-01-06T11:11:36;1021.2;;;-5.1;51.5
57799;BME280;43626;53.866;30.298;2024-01-06T11:16:56;1021.2;;;-5.3;51.1
57799;BME280;43626;53.866;30.298;2024-01-06T11:22:29;1021.2;;;-5.4;51.4
57799;BME280;43626;53.866;30.298;2024-01-06T11:27:17;1021.3;;;-5.5;51.3
57799;BME280;43626;53.866;30.298;2024-01-06T11:31:36;1021.3;;;-5.5;51.4
57799;BME280;43626;53.866;30.298;2024-01-06T11:37:14;1021.4;;;-5.6;51.2
57799;BME280;43626;53.866;30.298;2024-01-06T11:42:31;1021.4;;;-5.5;51.2
57799;BME280;43626;53.866;30.298;2024-01-06T11:46:36;1021.5;;;-5.5;50.8
57799;BME280;43626;53.866;30.298;2024-01-06T11:51:36;1021.5;;;-5.6;50.1
57799;BME280;43626;53.866;30.298;2024-01-06T11:57:14;1021.6;;;-5.7;49.9
57799;BME280;43626;53.866;30.298;2024-01-06T12:02:10;1021.7;;;-5.8;49.8
57799;BME280;43626;53.866;30.298;2024-01-06T12:07:04;1021.7;;;-5.9;49.3
57799;BME280;43626;53.866;30.298;2024-01-06T12:11:36;1021.8;;;-6;49.4
57799;BME280;43626;53.866;30.298;2024-01-06T12:17:21;1021.8;;;-6;49.2
57799;BME280;43626;53.866;30.298;2024-01-06T12:21:56;1021.8;;;-6;49.7
57799;BME280;43626;53.866;30.298;2024-01-06T12:26:56;1021.9;;;-5.9;49.8
57799;BME280;43626;53.866;30.298;2024-01-06T12:32:06;1021.9;;;-5.9;49.9
57799;BME280;43626;53.866;30.298;2024-01-06T12:36:38;1021.9;;;-6;50.3
57799;BME280;43626;53.866;30.298;2024-01-06T12:42:28;1021.9;;;-6;49.8
57799;BME280;43626;53.866;30.298;2024-01-06T12:47:28;1022;;;-6.2;49.6
57799;BME280;43626;53.866;30.298;2024-01-06T12:52:09;1022.1;;;-6.3;49.4
57799;BME280;43626;53.866;30.298;2024-01-06T12:56:58;1022.1;;;-6.3;49
57799;BME280;43626;53.866;30.298;2024-01-06T13:01:38;1022.2;;;-6.4;48.9
57799;BME280;43626;53.866;30.298;2024-01-06T13:06:56;1022.3;;;-6.4;48.9
57799;BME280;43626;53.866;30.298;2024-01-06T13:11:58;1022.4;;;-6.4;49.1
57799;BME280;43626;53.866;30.298;2024-01-06T13:16:44;1022.4;;;-6.5;49.1
57799;BME280;43626;53.866;30.298;2024-01-06T13:21:38;1022.4;;;-6.6;49.3
57799;BME280;43626;53.866;30.298;2024-01-06T13:27:14;1022.4;;;-6.7;49.4
57799;BME280;43626;53.866;30.298;2024-01-06T13:32:28;1022.5;;;-6.7;49.5
57799;BME280;43626;53.866;30.298;2024-01-06T13:37:06;1022.6;;;-6.8;49.3
57799;BME280;43626;53.866;30.298;2024-01-06T13:42:28;1022.6;;;-6.9;49.2
57799;BME280;43626;53.866;30.298;2024-01-06T13:46:58;1022.6;;;-7;49.2
57799;BME280;43626;53.866;30.298;2024-01-06T13:52:06;1022.8;;;-7;49.1
57799;BME280;43626;53.866;30.298;2024-01-06T13:57:30;1022.8;;;-7.2;49.1
57799;BME280;43626;53.866;30.298;2024-01-06T14:02:06;1022.9;;;-7.3;49.1
57799;BME280;43626;53.866;30.298;2024-01-06T14:07:06;1023;;;-7.3;49.2
57799;BME280;43626;53.866;30.298;2024-01-06T14:12:00;1023;;;-7.3;49.5
57799;BME280;43626;53.866;30.298;2024-01-06T14:17:16;1023.1;;;-7.3;49
57799;BME280;43626;53.866;30.298;2024-01-06T14:21:56;1023.2;;;-7.5;49
57799;BME280;43626;53.866;30.298;2024-01-06T14:27:16;1023.2;;;-7.5;49.2
57799;BME280;43626;53.866;30.298;2024-01-06T14:32:20;1023.2;;;-7.6;49
57799;BME280;43626;53.866;30.298;2024-01-06T14:36:58;1023.3;;;-7.7;48.5
57799;BME280;43626;53.866;30.298;2024-01-06T14:42:04;1023.3;;;-7.9;48.4
57799;BME280;43626;53.866;30.298;2024-01-06T14:47:16;1023.4;;;-8;48.6
57799;BME280;43626;53.866;30.298;2024-01-06T14:51:38;1023.4;;;-8;48.6
57799;BME280;43626;53.866;30.298;2024-01-06T14:56:46;1023.3;;;-8;49
57799;BME280;43626;53.866;30.298;2024-01-06T15:01:46;1023.2;;;-7.9;48.9
57799;BME280;43626;53.866;30.298;2024-01-06T15:06:38;1023.2;;;-7.9;49
57799;BME280;43626;53.866;30.298;2024-01-06T15:12:30;1023.3;;;-8;48.9
57799;BME280;43626;53.866;30.298;2024-01-06T15:17:30;1023.4;;;-8.1;49
57799;BME280;43626;53.866;30.298;2024-01-06T15:22:18;1023.4;;;-8.2;49.2
57799;BME280;43626;53.866;30.298;2024-01-06T15:27:30;1023.3;;;-8.2;49.2
57799;BME280;43626;53.866;30.298;2024-01-06T15:31:38;1023.3;;;-8.3;49.3
57799;BME280;43626;53.866;30.298;2024-01-06T15:37:20;1023.4;;;-8.3;49.4
57799;BME280;43626;53.866;30.298;2024-01-06T15:41:38;1023.5;;;-8.3;49.6
57799;BME280;43626;53.866;30.298;2024-01-06T15:46:38;1023.6;;;-8.2;49.5
57799;BME280;43626;53.866;30.298;2024-01-06T15:51:38;1023.6;;;-8.1;49.4
57799;BME280;43626;53.866;30.298;2024-01-06T15:56:54;1023.6;;;-8;49.7
57799;BME280;43626;53.866;30.298;2024-01-06T16:02:30;1023.6;;;-7.9;49.4
57799;BME280;43626;53.866;30.298;2024-01-06T16:07:30;1023.6;;;-7.9;49.1
57799;BME280;43626;53.866;30.298;2024-01-06T16:12:20;1023.7;;;-8;49.1
57799;BME280;43626;53.866;30.298;2024-01-06T16:17:30;1023.7;;;-8.2;49.1
57799;BME280;43626;53.866;30.298;2024-01-06T16:21:46;1023.8;;;-8.4;49.2
57799;BME280;43626;53.866;30.298;2024-01-06T16:27:20;1023.9;;;-8.5;49.6
57799;BME280;43626;53.866;30.298;2024-01-06T16:32:30;1023.9;;;-8.5;49.2
57799;BME280;43626;53.866;30.298;2024-01-06T16:36:38;1024.1;;;-8.5;49.3
57799;BME280;43626;53.866;30.298;2024-01-06T16:41:38;1024.1;;;-8.6;49.3
57799;BME280;43626;53.866;30.298;2024-01-06T16:46:44;1024.3;;;-8.6;49.6
57799;BME280;43626;53.866;30.298;2024-01-06T16:52:30;1024.3;;;-8.5;49.5
57799;BME280;43626;53.866;30.298;2024-01-06T16:57:22;1024.4;;;-8.5;49.5
57799;BME280;43626;53.866;30.298;2024-01-06T17:02:20;1024.5;;;-8.5;49.5
57799;BME280;43626;53.866;30.298;2024-01-06T17:07:28;1024.6;;;-8.4;49.4
57799;BME280;43626;53.866;30.298;2024-01-06T17:11:46;1024.6;;;-8.5;49.4
57799;BME280;43626;53.866;30.298;2024-01-06T17:17:18;1024.6;;;-8.5;49.3
57799;BME280;43626;53.866;30.298;2024-01-06T17:21:46;1024.6;;;-8.6;49
57799;BME280;43626;53.866;30.298;2024-01-06T17:27:16;1024.7;;;-8.9;48.7
57799;BME280;43626;53.866;30.298;2024-01-06T17:31:38;1024.8;;;-9.2;49.1
57799;BME280;43626;53.866;30.298;2024-01-06T17:37:24;1024.9;;;-9.4;49.5
57799;BME280;43626;53.866;30.298;2024-01-06T17:42:30;1025;;;-9.5;49.9
57799;BME280;43626;53.866;30.298;2024-01-06T17:47:08;1025;;;-9.5;50
57799;BME280;43626;53.866;30.298;2024-01-06T17:52:00;1025.1;;;-9.5;50.1
57799;BME280;43626;53.866;30.298;2024-01-06T17:57:30;1025.2;;;-9.5;50
57799;BME280;43626;53.866;30.298;2024-01-06T18:02:06;1025.2;;;-9.5;50.1
57799;BME280;43626;53.866;30.298;2024-01-06T18:07:20;1025.2;;;-9.6;50.1
57799;BME280;43626;53.866;30.298;2024-01-06T18:12:08;1025.4;;;-9.7;50.3
57799;BME280;43626;53.866;30.298;2024-01-06T18:17:06;1025.5;;;-9.7;50.3
57799;BME280;43626;53.866;30.298;2024-01-06T18:21:38;1025.5;;;-9.7;50.4
57799;BME280;43626;53.866;30.298;2024-01-06T18:26:38;1025.6;;;-9.7;50.1
57799;BME280;43626;53.866;30.298;2024-01-06T18:32:31;1025.7;;;-9.7;50.1
57799;BME280;43626;53.866;30.298;2024-01-06T18:37:30;1025.7;;;-9.7;50.1
57799;BME280;43626;53.866;30.298;2024-01-06T18:41:52;1025.8;;;-9.6;50.3
57799;BME280;43626;53.866;30.298;2024-01-06T18:47:30;1025.8;;;-9.7;50.1
57799;BME280;43626;53.866;30.298;2024-01-06T18:52:04;1025.9;;;-9.7;50.2
57799;BME280;43626;53.866;30.298;2024-01-06T18:57:30;1025.9;;;-9.7;50.1
57799;BME280;43626;53.866;30.298;2024-01-06T19:01:38;1025.9;;;-9.7;50.1
57799;BME280;43626;53.866;30.298;2024-01-06T19:06:38;1025.9;;;-9.7;50
57799;BME280;43626;53.866;30.298;2024-01-06T19:12:08;1026.1;;;-9.8;50.1
57799;BME280;43626;53.866;30.298;2024-01-06T19:16:38;1026.2;;;-9.9;50.2
57799;BME280;43626;53.866;30.298;2024-01-06T19:22:08;1026.2;;;-9.9;50.1
57799;BME280;43626;53.866;30.298;2024-01-06T19:27:08;1026.2;;;-10;50.2
57799;BME280;43626;53.866;30.298;2024-01-06T19:32:30;1026.2;;;-10;50
57799;BME280;43626;53.866;30.298;2024-01-06T19:37:10;1026.2;;;-10;50
57799;BME280;43626;53.866;30.298;2024-01-06T19:41:56;1026.2;;;-10.1;50.1
57799;BME280;43626;53.866;30.298;2024-01-06T19:47:30;1026.2;;;-10.1;50.1
57799;BME280;43626;53.866;30.298;2024-01-06T19:51:46;1026.3;;;-10.2;50.1
57799;BME280;43626;53.866;30.298;2024-01-06T19:56:36;1026.4;;;-10.3;50.1
57799;BME280;43626;53.866;30.298;2024-01-06T20:02:08;1026.3;;;-10.4;50.1
57799;BME280;43626;53.866;30.298;2024-01-06T20:06:46;1026.4;;;-10.5;50.2
57799;BME280;43626;53.866;30.298;2024-01-06T20:12:08;1026.5;;;-10.6;50.3
57799;BME280;43626;53.866;30.298;2024-01-06T20:17:06;1026.5;;;-10.6;50.3
57799;BME280;43626;53.866;30.298;2024-01-06T20:22:30;1026.6;;;-10.6;50.1
57799;BME280;43626;53.866;30.298;2024-01-06T20:27:30;1026.6;;;-10.8;50.1
57799;BME280;43626;53.866;30.298;2024-01-06T20:31:58;1026.6;;;-10.8;50.3
57799;BME280;43626;53.866;30.298;2024-01-06T20:37:30;1026.6;;;-10.8;50.4
57799;BME280;43626;53.866;30.298;2024-01-06T20:41:38;1026.7;;;-10.8;50.5
57799;BME280;43626;53.866;30.298;2024-01-06T20:46:38;1026.7;;;-10.7;50.4
57799;BME280;43626;53.866;30.298;2024-01-06T20:52:08;1026.7;;;-10.7;50.4
57799;BME280;43626;53.866;30.298;2024-01-06T20:56:38;1026.8;;;-10.8;50.4
57799;BME280;43626;53.866;30.298;2024-01-06T21:02:06;1026.8;;;-11;50.6
57799;BME280;43626;53.866;30.298;2024-01-06T21:07:03;1026.8;;;-11.1;50.7
57799;BME280;43626;53.866;30.298;2024-01-06T21:12:30;1026.7;;;-11.2;50.6
57799;BME280;43626;53.866;30.298;2024-01-06T21:17:28;1026.8;;;-11.4;51.1
57799;BME280;43626;53.866;30.298;2024-01-06T21:22:16;1026.8;;;-11.5;51.3
57799;BME280;43626;53.866;30.298;2024-01-06T21:27:31;1026.8;;;-11.5;51.4
57799;BME280;43626;53.866;30.298;2024-01-06T21:31:52;1026.8;;;-11.6;51.1
57799;BME280;43626;53.866;30.298;2024-01-06T21:37:06;1026.9;;;-11.6;51.1
57799;BME280;43626;53.866;30.298;2024-01-06T21:41:52;1027;;;-11.5;50.9
57799;BME280;43626;53.866;30.298;2024-01-06T21:46:46;1027.1;;;-11.6;51
57799;BME280;43626;53.866;30.298;2024-01-06T21:52:00;1027.3;;;-11.5;51
57799;BME280;43626;53.866;30.298;2024-01-06T21:57:08;1027.3;;;-11.4;50.8
57799;BME280;43626;53.866;30.298;2024-01-06T22:02:30;1027.4;;;-11.4;50.3
57799;BME280;43626;53.866;30.298;2024-01-06T22:07:31;1027.4;;;-11.5;50.2
57799;BME280;43626;53.866;30.298;2024-01-06T22:12:07;1027.4;;;-11.4;50.3
57799;BME280;43626;53.866;30.298;2024-01-06T22:17:30;1027.3;;;-11.4;49.9
57799;BME280;43626;53.866;30.298;2024-01-06T22:21:46;1027.3;;;-11.4;49.8
57799;BME280;43626;53.866;30.298;2024-01-06T22:26:47;1027.4;;;-11.4;49.8
57799;BME280;43626;53.866;30.298;2024-01-06T22:32:08;1027.4;;;-11.4;49.8
57799;BME280;43626;53.866;30.298;2024-01-06T22:36:54;1027.5;;;-11.4;50.1
57799;BME280;43626;53.866;30.298;2024-01-06T22:42:08;1027.5;;;-11.4;50
57799;BME280;43626;53.866;30.298;2024-01-06T22:46:56;1027.5;;;-11.4;50
57799;BME280;43626;53.866;30.298;2024-01-06T22:52:30;1027.5;;;-11.5;49.9
57799;BME280;43626;53.866;30.298;2024-01-06T22:57:30;1027.5;;;-11.6;49.7
57799;BME280;43626;53.866;30.298;2024-01-06T23:02:06;1027.5;;;-11.6;49.6
57799;BME280;43626;53.866;30.298;2024-01-06T23:07:28;1027.6;;;-11.6;49.7
57799;BME280;43626;53.866;30.298;2024-01-06T23:11:38;1027.6;;;-11.6;49.6
57799;BME280;43626;53.866;30.298;2024-01-06T23:16:38;1027.6;;;-11.6;49.4
57799;BME280;43626;53.866;30.298;2024-01-06T23:22:00;1027.6;;;-11.6;49.5
57799;BME280;43626;53.866;30.298;2024-01-06T23:26:54;1027.6;;;-11.6;49.2
57799;BME280;43626;53.866;30.298;2024-01-06T23:32:08;1027.7;;;-11.7;49
57799;BME280;43626;53.866;30.298;2024-01-06T23:37:08;1027.8;;;-11.8;48.7
57799;BME280;43626;53.866;30.298;2024-01-06T23:42:30;1027.9;;;-12;48.2
57799;BME280;43626;53.866;30.298;2024-01-06T23:47:31;1027.9;;;-12.3;48
57799;BME280;43626;53.866;30.298;2024-01-06T23:52:16;1028.1;;;-12.6;48.2
57799;BME280;43626;53.866;30.298;2024-01-06T23:56:38;1028.3;;;-12.8;48.2
